sensor_id;sensor_type;location;lat;lon;timestamp;P1;durP1;ratioP1;P2;durP2;ratioP2
22929;SDS011;11630;42.660;23.292;2023-02-28T00:00:43;26.90;;;16.67;;
22929;SDS011;11630;42.660;23.292;2023-02-28T00:03:15;19.83;;;13.97;;
22929;SDS011;11630;42.660;23.292;2023-02-28T00:05:45;20.20;;;14.70;;
22929;SDS011;11630;42.660;23.292;2023-02-28T00:08:16;22.03;;;14.00;;
22929;SDS011;11630;42.660;23.292;2023-02-28T00:10:47;17.90;;;13.63;;
22929;SDS011;11630;42.660;23.292;2023-02-28T00:13:18;16.27;;;12.13;;
22929;SDS011;11630;42.660;23.292;2023-02-28T00:15:58;14.43;;;10.83;;
22929;SDS011;11630;42.660;23.292;2023-02-28T00:18:27;13.60;;;9.73;;
22929;SDS011;11630;42.660;23.292;2023-02-28T00:20:59;12.90;;;10.20;;
22929;SDS011;11630;42.660;23.292;2023-02-28T00:23:29;14.53;;;9.33;;
22929;SDS011;11630;42.660;23.292;2023-02-28T00:26:01;12.90;;;9.63;;
22929;SDS011;11630;42.660;23.292;2023-02-28T00:28:34;14.83;;;9.80;;
22929;SDS011;11630;42.660;23.292;2023-02-28T00:31:05;11.73;;;8.77;;
22929;SDS011;11630;42.660;23.292;2023-02-28T00:33:36;12.10;;;9.63;;
22929;SDS011;11630;42.660;23.292;2023-02-28T00:36:08;9.73;;;7.23;;
22929;SDS011;11630;42.660;23.292;2023-02-28T00:38:39;10.70;;;7.80;;
22929;SDS011;11630;42.660;23.292;2023-02-28T00:41:10;9.73;;;6.60;;
22929;SDS011;11630;42.660;23.292;2023-02-28T00:43:40;11.87;;;6.87;;
22929;SDS011;11630;42.660;23.292;2023-02-28T00:46:11;10.93;;;7.57;;
22929;SDS011;11630;42.660;23.292;2023-02-28T00:48:42;14.87;;;10.03;;
22929;SDS011;11630;42.660;23.292;2023-02-28T00:51:13;12.70;;;10.33;;
22929;SDS011;11630;42.660;23.292;2023-02-28T00:53:44;18.77;;;11.10;;
22929;SDS011;11630;42.660;23.292;2023-02-28T00:56:15;18.63;;;11.73;;
22929;SDS011;11630;42.660;23.292;2023-02-28T00:58:45;22.27;;;14.10;;
22929;SDS011;11630;42.660;23.292;2023-02-28T01:01:16;20.63;;;14.13;;
22929;SDS011;11630;42.660;23.292;2023-02-28T01:03:47;19.30;;;16.00;;
22929;SDS011;11630;42.660;23.292;2023-02-28T01:06:18;30.53;;;18.27;;
22929;SDS011;11630;42.660;23.292;2023-02-28T01:08:49;24.47;;;14.83;;
22929;SDS011;11630;42.660;23.292;2023-02-28T01:11:20;21.47;;;14.10;;
22929;SDS011;11630;42.660;23.292;2023-02-28T01:13:51;23.47;;;14.93;;
22929;SDS011;11630;42.660;23.292;2023-02-28T01:16:22;20.53;;;14.20;;
22929;SDS011;11630;42.660;23.292;2023-02-28T01:18:55;22.93;;;15.10;;
22929;SDS011;11630;42.660;23.292;2023-02-28T01:21:25;24.20;;;15.70;;
22929;SDS011;11630;42.660;23.292;2023-02-28T01:24:02;23.20;;;14.97;;
22929;SDS011;11630;42.660;23.292;2023-02-28T01:26:32;21.67;;;15.23;;
22929;SDS011;11630;42.660;23.292;2023-02-28T01:29:03;23.57;;;14.67;;
22929;SDS011;11630;42.660;23.292;2023-02-28T01:31:35;29.30;;;16.27;;
22929;SDS011;11630;42.660;23.292;2023-02-28T01:34:05;22.07;;;15.67;;
22929;SDS011;11630;42.660;23.292;2023-02-28T01:36:35;28.13;;;17.67;;
22929;SDS011;11630;42.660;23.292;2023-02-28T01:39:06;28.03;;;18.97;;
22929;SDS011;11630;42.660;23.292;2023-02-28T01:41:37;31.43;;;22.30;;
22929;SDS011;11630;42.660;23.292;2023-02-28T01:46:56;44.70;;;27.73;;
22929;SDS011;11630;42.660;23.292;2023-02-28T01:49:27;39.30;;;24.77;;
22929;SDS011;11630;42.660;23.292;2023-02-28T01:51:58;46.33;;;25.83;;
22929;SDS011;11630;42.660;23.292;2023-02-28T01:54:30;40.47;;;25.80;;
22929;SDS011;11630;42.660;23.292;2023-02-28T01:57:04;41.80;;;25.47;;
22929;SDS011;11630;42.660;23.292;2023-02-28T01:59:38;42.57;;;27.87;;
22929;SDS011;11630;42.660;23.292;2023-02-28T02:02:08;41.63;;;24.83;;
22929;SDS011;11630;42.660;23.292;2023-02-28T02:04:41;49.30;;;27.97;;
22929;SDS011;11630;42.660;23.292;2023-02-28T02:07:12;45.90;;;27.37;;
22929;SDS011;11630;42.660;23.292;2023-02-28T02:09:44;52.43;;;28.77;;
22929;SDS011;11630;42.660;23.292;2023-02-28T02:12:25;52.53;;;28.57;;
22929;SDS011;11630;42.660;23.292;2023-02-28T02:15:08;46.10;;;27.83;;
22929;SDS011;11630;42.660;23.292;2023-02-28T02:17:44;51.27;;;29.73;;
22929;SDS011;11630;42.660;23.292;2023-02-28T02:23:17;51.03;;;30.50;;
22929;SDS011;11630;42.660;23.292;2023-02-28T02:34:28;52.17;;;31.10;;
22929;SDS011;11630;42.660;23.292;2023-02-28T02:37:24;52.43;;;30.47;;
22929;SDS011;11630;42.660;23.292;2023-02-28T02:40:18;49.47;;;29.53;;
22929;SDS011;11630;42.660;23.292;2023-02-28T02:42:52;47.47;;;27.93;;
22929;SDS011;11630;42.660;23.292;2023-02-28T02:45:45;49.13;;;27.40;;
22929;SDS011;11630;42.660;23.292;2023-02-28T02:48:19;46.33;;;27.07;;
22929;SDS011;11630;42.660;23.292;2023-02-28T02:50:54;49.47;;;28.80;;
22929;SDS011;11630;42.660;23.292;2023-02-28T02:53:29;49.07;;;27.83;;
22929;SDS011;11630;42.660;23.292;2023-02-28T02:56:02;52.13;;;28.07;;
22929;SDS011;11630;42.660;23.292;2023-02-28T02:58:36;53.13;;;27.97;;
22929;SDS011;11630;42.660;23.292;2023-02-28T03:01:12;44.70;;;27.17;;
22929;SDS011;11630;42.660;23.292;2023-02-28T03:03:42;44.50;;;26.87;;
22929;SDS011;11630;42.660;23.292;2023-02-28T03:06:14;54.33;;;27.87;;
22929;SDS011;11630;42.660;23.292;2023-02-28T03:08:45;51.03;;;26.80;;
22929;SDS011;11630;42.660;23.292;2023-02-28T03:11:16;47.93;;;27.77;;
22929;SDS011;11630;42.660;23.292;2023-02-28T03:16:40;49.73;;;28.67;;
22929;SDS011;11630;42.660;23.292;2023-02-28T03:22:03;49.97;;;28.27;;
22929;SDS011;11630;42.660;23.292;2023-02-28T03:24:45;58.13;;;33.67;;
22929;SDS011;11630;42.660;23.292;2023-02-28T03:27:29;57.27;;;32.27;;
22929;SDS011;11630;42.660;23.292;2023-02-28T03:30:10;57.40;;;32.57;;
22929;SDS011;11630;42.660;23.292;2023-02-28T03:32:52;53.83;;;30.97;;
22929;SDS011;11630;42.660;23.292;2023-02-28T03:35:32;50.13;;;31.43;;
22929;SDS011;11630;42.660;23.292;2023-02-28T03:38:08;48.73;;;30.17;;
22929;SDS011;11630;42.660;23.292;2023-02-28T03:40:46;50.50;;;30.33;;
22929;SDS011;11630;42.660;23.292;2023-02-28T03:43:18;50.93;;;31.70;;
22929;SDS011;11630;42.660;23.292;2023-02-28T03:45:49;52.77;;;30.17;;
22929;SDS011;11630;42.660;23.292;2023-02-28T03:48:26;54.83;;;30.47;;
22929;SDS011;11630;42.660;23.292;2023-02-28T03:50:57;51.37;;;30.23;;
22929;SDS011;11630;42.660;23.292;2023-02-28T03:53:34;50.17;;;29.50;;
22929;SDS011;11630;42.660;23.292;2023-02-28T04:01:37;51.70;;;28.03;;
22929;SDS011;11630;42.660;23.292;2023-02-28T04:04:08;54.33;;;28.97;;
22929;SDS011;11630;42.660;23.292;2023-02-28T04:06:40;45.80;;;28.20;;
22929;SDS011;11630;42.660;23.292;2023-02-28T04:09:12;42.37;;;26.63;;
22929;SDS011;11630;42.660;23.292;2023-02-28T04:11:44;42.77;;;25.27;;
22929;SDS011;11630;42.660;23.292;2023-02-28T04:14:15;39.60;;;24.73;;
22929;SDS011;11630;42.660;23.292;2023-02-28T04:16:45;34.23;;;22.20;;
22929;SDS011;11630;42.660;23.292;2023-02-28T04:19:16;37.37;;;24.47;;
22929;SDS011;11630;42.660;23.292;2023-02-28T04:21:48;42.47;;;24.33;;
22929;SDS011;11630;42.660;23.292;2023-02-28T04:24:21;43.07;;;24.27;;
22929;SDS011;11630;42.660;23.292;2023-02-28T04:26:55;43.23;;;23.17;;
22929;SDS011;11630;42.660;23.292;2023-02-28T04:29:29;46.87;;;25.77;;
22929;SDS011;11630;42.660;23.292;2023-02-28T04:32:01;39.00;;;23.07;;
22929;SDS011;11630;42.660;23.292;2023-02-28T04:34:32;38.23;;;23.70;;
22929;SDS011;11630;42.660;23.292;2023-02-28T04:37:03;36.70;;;22.77;;
22929;SDS011;11630;42.660;23.292;2023-02-28T04:39:35;45.50;;;25.77;;
22929;SDS011;11630;42.660;23.292;2023-02-28T04:42:06;39.43;;;23.77;;
22929;SDS011;11630;42.660;23.292;2023-02-28T04:44:37;39.63;;;23.57;;
22929;SDS011;11630;42.660;23.292;2023-02-28T04:47:07;40.83;;;23.40;;
22929;SDS011;11630;42.660;23.292;2023-02-28T04:49:38;39.87;;;25.63;;
22929;SDS011;11630;42.660;23.292;2023-02-28T04:52:09;43.87;;;23.97;;
22929;SDS011;11630;42.660;23.292;2023-02-28T04:54:39;34.73;;;20.20;;
22929;SDS011;11630;42.660;23.292;2023-02-28T04:57:10;35.67;;;21.83;;
22929;SDS011;11630;42.660;23.292;2023-02-28T04:59:41;40.80;;;23.53;;
22929;SDS011;11630;42.660;23.292;2023-02-28T05:02:12;39.67;;;21.00;;
22929;SDS011;11630;42.660;23.292;2023-02-28T05:04:43;42.77;;;22.90;;
22929;SDS011;11630;42.660;23.292;2023-02-28T05:07:14;38.60;;;23.63;;
22929;SDS011;11630;42.660;23.292;2023-02-28T05:09:45;39.90;;;22.80;;
22929;SDS011;11630;42.660;23.292;2023-02-28T05:12:16;38.50;;;21.93;;
22929;SDS011;11630;42.660;23.292;2023-02-28T05:14:47;36.00;;;19.47;;
22929;SDS011;11630;42.660;23.292;2023-02-28T05:17:18;30.03;;;18.70;;
22929;SDS011;11630;42.660;23.292;2023-02-28T05:19:49;38.63;;;20.13;;
22929;SDS011;11630;42.660;23.292;2023-02-28T05:22:20;35.23;;;20.77;;
22929;SDS011;11630;42.660;23.292;2023-02-28T05:24:51;40.57;;;20.20;;
22929;SDS011;11630;42.660;23.292;2023-02-28T05:27:22;30.93;;;19.37;;
22929;SDS011;11630;42.660;23.292;2023-02-28T05:29:52;27.47;;;18.07;;
22929;SDS011;11630;42.660;23.292;2023-02-28T05:32:24;29.07;;;17.20;;
22929;SDS011;11630;42.660;23.292;2023-02-28T05:34:54;29.80;;;18.03;;
22929;SDS011;11630;42.660;23.292;2023-02-28T05:37:25;31.07;;;17.27;;
22929;SDS011;11630;42.660;23.292;2023-02-28T05:39:56;30.20;;;17.07;;
22929;SDS011;11630;42.660;23.292;2023-02-28T05:42:26;29.90;;;17.97;;
22929;SDS011;11630;42.660;23.292;2023-02-28T05:44:57;31.50;;;18.50;;
22929;SDS011;11630;42.660;23.292;2023-02-28T05:47:27;27.70;;;17.27;;
22929;SDS011;11630;42.660;23.292;2023-02-28T05:49:57;29.77;;;18.30;;
22929;SDS011;11630;42.660;23.292;2023-02-28T05:52:28;30.83;;;16.80;;
22929;SDS011;11630;42.660;23.292;2023-02-28T05:55:00;34.47;;;18.30;;
22929;SDS011;11630;42.660;23.292;2023-02-28T05:57:30;28.43;;;17.60;;
22929;SDS011;11630;42.660;23.292;2023-02-28T06:00:01;25.77;;;18.07;;
22929;SDS011;11630;42.660;23.292;2023-02-28T06:02:33;32.47;;;18.23;;
22929;SDS011;11630;42.660;23.292;2023-02-28T06:05:03;27.13;;;17.70;;
22929;SDS011;11630;42.660;23.292;2023-02-28T06:07:34;33.23;;;20.20;;
22929;SDS011;11630;42.660;23.292;2023-02-28T06:10:05;38.07;;;21.03;;
22929;SDS011;11630;42.660;23.292;2023-02-28T06:12:37;33.37;;;21.43;;
22929;SDS011;11630;42.660;23.292;2023-02-28T06:15:12;38.23;;;21.33;;
22929;SDS011;11630;42.660;23.292;2023-02-28T06:17:44;37.07;;;21.27;;
22929;SDS011;11630;42.660;23.292;2023-02-28T06:20:15;33.57;;;22.57;;
22929;SDS011;11630;42.660;23.292;2023-02-28T06:22:46;35.60;;;21.27;;
22929;SDS011;11630;42.660;23.292;2023-02-28T06:25:20;34.27;;;21.43;;
22929;SDS011;11630;42.660;23.292;2023-02-28T06:27:51;40.40;;;21.83;;
22929;SDS011;11630;42.660;23.292;2023-02-28T06:30:25;34.40;;;21.17;;
22929;SDS011;11630;42.660;23.292;2023-02-28T06:32:57;34.93;;;20.73;;
22929;SDS011;11630;42.660;23.292;2023-02-28T06:35:31;36.93;;;23.23;;
22929;SDS011;11630;42.660;23.292;2023-02-28T06:38:02;40.43;;;24.03;;
22929;SDS011;11630;42.660;23.292;2023-02-28T06:40:33;37.80;;;23.00;;
22929;SDS011;11630;42.660;23.292;2023-02-28T06:43:04;40.60;;;25.10;;
22929;SDS011;11630;42.660;23.292;2023-02-28T06:45:34;41.77;;;24.77;;
22929;SDS011;11630;42.660;23.292;2023-02-28T06:48:06;40.77;;;23.83;;
22929;SDS011;11630;42.660;23.292;2023-02-28T06:50:37;43.67;;;25.17;;
22929;SDS011;11630;42.660;23.292;2023-02-28T06:53:07;40.93;;;23.57;;
22929;SDS011;11630;42.660;23.292;2023-02-28T06:55:39;46.90;;;25.90;;
22929;SDS011;11630;42.660;23.292;2023-02-28T06:58:09;43.90;;;25.40;;
22929;SDS011;11630;42.660;23.292;2023-02-28T07:00:43;45.20;;;27.10;;
22929;SDS011;11630;42.660;23.292;2023-02-28T07:03:15;44.43;;;26.37;;
22929;SDS011;11630;42.660;23.292;2023-02-28T07:05:46;46.60;;;27.90;;
22929;SDS011;11630;42.660;23.292;2023-02-28T07:08:17;48.60;;;27.13;;
22929;SDS011;11630;42.660;23.292;2023-02-28T07:10:51;44.40;;;28.40;;
22929;SDS011;11630;42.660;23.292;2023-02-28T07:13:23;48.90;;;27.60;;
22929;SDS011;11630;42.660;23.292;2023-02-28T07:16:02;47.23;;;27.47;;
22929;SDS011;11630;42.660;23.292;2023-02-28T07:18:33;51.63;;;29.83;;
22929;SDS011;11630;42.660;23.292;2023-02-28T07:21:06;49.90;;;28.00;;
22929;SDS011;11630;42.660;23.292;2023-02-28T07:23:39;55.30;;;29.43;;
22929;SDS011;11630;42.660;23.292;2023-02-28T07:26:14;44.50;;;27.77;;
22929;SDS011;11630;42.660;23.292;2023-02-28T07:28:42;53.63;;;27.27;;
22929;SDS011;11630;42.660;23.292;2023-02-28T07:31:13;49.43;;;27.63;;
22929;SDS011;11630;42.660;23.292;2023-02-28T07:33:44;47.27;;;27.70;;
22929;SDS011;11630;42.660;23.292;2023-02-28T07:36:16;44.90;;;27.27;;
22929;SDS011;11630;42.660;23.292;2023-02-28T07:38:47;44.63;;;29.43;;
22929;SDS011;11630;42.660;23.292;2023-02-28T07:41:17;46.47;;;26.77;;
22929;SDS011;11630;42.660;23.292;2023-02-28T07:43:49;56.00;;;28.87;;
22929;SDS011;11630;42.660;23.292;2023-02-28T07:46:20;48.43;;;28.23;;
22929;SDS011;11630;42.660;23.292;2023-02-28T07:48:52;45.30;;;26.67;;
22929;SDS011;11630;42.660;23.292;2023-02-28T07:51:30;55.50;;;28.20;;
22929;SDS011;11630;42.660;23.292;2023-02-28T07:53:59;46.40;;;27.80;;
22929;SDS011;11630;42.660;23.292;2023-02-28T07:56:30;54.63;;;27.83;;
22929;SDS011;11630;42.660;23.292;2023-02-28T07:59:01;63.93;;;36.50;;
22929;SDS011;11630;42.660;23.292;2023-02-28T08:01:32;66.90;;;34.60;;
22929;SDS011;11630;42.660;23.292;2023-02-28T08:04:02;54.37;;;31.93;;
22929;SDS011;11630;42.660;23.292;2023-02-28T08:06:33;63.03;;;32.57;;
22929;SDS011;11630;42.660;23.292;2023-02-28T08:09:03;67.00;;;36.03;;
22929;SDS011;11630;42.660;23.292;2023-02-28T08:11:34;75.80;;;35.83;;
22929;SDS011;11630;42.660;23.292;2023-02-28T08:14:05;66.20;;;33.57;;
22929;SDS011;11630;42.660;23.292;2023-02-28T08:16:36;63.97;;;36.43;;
22929;SDS011;11630;42.660;23.292;2023-02-28T08:19:06;59.37;;;31.53;;
22929;SDS011;11630;42.660;23.292;2023-02-28T08:21:37;50.67;;;30.47;;
22929;SDS011;11630;42.660;23.292;2023-02-28T08:24:08;54.97;;;32.23;;
22929;SDS011;11630;42.660;23.292;2023-02-28T08:26:38;60.40;;;32.63;;
22929;SDS011;11630;42.660;23.292;2023-02-28T08:29:09;55.23;;;33.00;;
22929;SDS011;11630;42.660;23.292;2023-02-28T08:31:39;60.97;;;33.83;;
22929;SDS011;11630;42.660;23.292;2023-02-28T08:34:11;61.13;;;33.53;;
22929;SDS011;11630;42.660;23.292;2023-02-28T08:36:43;67.70;;;33.80;;
22929;SDS011;11630;42.660;23.292;2023-02-28T08:39:12;58.67;;;32.80;;
22929;SDS011;11630;42.660;23.292;2023-02-28T08:41:43;59.37;;;34.03;;
22929;SDS011;11630;42.660;23.292;2023-02-28T08:44:13;55.93;;;33.17;;
22929;SDS011;11630;42.660;23.292;2023-02-28T08:46:44;64.90;;;34.30;;
22929;SDS011;11630;42.660;23.292;2023-02-28T08:49:15;63.63;;;35.10;;
22929;SDS011;11630;42.660;23.292;2023-02-28T08:51:46;64.93;;;35.90;;
22929;SDS011;11630;42.660;23.292;2023-02-28T08:54:16;62.30;;;34.93;;
22929;SDS011;11630;42.660;23.292;2023-02-28T08:56:47;69.07;;;35.30;;
22929;SDS011;11630;42.660;23.292;2023-02-28T08:59:18;70.50;;;36.50;;
22929;SDS011;11630;42.660;23.292;2023-02-28T09:01:48;69.90;;;35.73;;
22929;SDS011;11630;42.660;23.292;2023-02-28T09:04:18;67.83;;;37.00;;
22929;SDS011;11630;42.660;23.292;2023-02-28T09:06:49;67.60;;;35.47;;
22929;SDS011;11630;42.660;23.292;2023-02-28T09:09:20;83.43;;;35.40;;
22929;SDS011;11630;42.660;23.292;2023-02-28T09:11:50;76.83;;;36.87;;
22929;SDS011;11630;42.660;23.292;2023-02-28T09:14:20;72.70;;;38.77;;
22929;SDS011;11630;42.660;23.292;2023-02-28T09:16:52;75.20;;;37.90;;
22929;SDS011;11630;42.660;23.292;2023-02-28T09:19:23;71.53;;;38.17;;
22929;SDS011;11630;42.660;23.292;2023-02-28T09:21:54;69.33;;;37.10;;
22929;SDS011;11630;42.660;23.292;2023-02-28T09:24:24;73.13;;;36.67;;
22929;SDS011;11630;42.660;23.292;2023-02-28T09:26:55;72.33;;;36.93;;
22929;SDS011;11630;42.660;23.292;2023-02-28T09:29:25;67.50;;;33.70;;
22929;SDS011;11630;42.660;23.292;2023-02-28T09:31:56;68.50;;;36.93;;
22929;SDS011;11630;42.660;23.292;2023-02-28T09:34:27;75.47;;;37.37;;
22929;SDS011;11630;42.660;23.292;2023-02-28T09:36:58;65.73;;;37.47;;
22929;SDS011;11630;42.660;23.292;2023-02-28T09:39:29;63.17;;;35.80;;
22929;SDS011;11630;42.660;23.292;2023-02-28T09:41:59;69.03;;;37.30;;
22929;SDS011;11630;42.660;23.292;2023-02-28T09:44:37;72.57;;;36.50;;
22929;SDS011;11630;42.660;23.292;2023-02-28T09:47:31;70.47;;;35.93;;
22929;SDS011;11630;42.660;23.292;2023-02-28T09:49:58;75.87;;;38.20;;
22929;SDS011;11630;42.660;23.292;2023-02-28T09:52:31;71.33;;;37.10;;
22929;SDS011;11630;42.660;23.292;2023-02-28T09:55:18;74.87;;;36.60;;
22929;SDS011;11630;42.660;23.292;2023-02-28T09:58:00;66.10;;;37.90;;
22929;SDS011;11630;42.660;23.292;2023-02-28T10:00:39;72.77;;;36.27;;
22929;SDS011;11630;42.660;23.292;2023-02-28T10:05:52;68.53;;;38.90;;
22929;SDS011;11630;42.660;23.292;2023-02-28T10:08:47;66.87;;;35.43;;
22929;SDS011;11630;42.660;23.292;2023-02-28T10:11:15;67.07;;;35.43;;
22929;SDS011;11630;42.660;23.292;2023-02-28T10:13:56;62.63;;;34.97;;
22929;SDS011;11630;42.660;23.292;2023-02-28T10:16:34;76.97;;;40.47;;
22929;SDS011;11630;42.660;23.292;2023-02-28T10:19:14;57.10;;;34.40;;
22929;SDS011;11630;42.660;23.292;2023-02-28T10:22:04;61.83;;;33.87;;
22929;SDS011;11630;42.660;23.292;2023-02-28T10:24:51;63.07;;;34.93;;
22929;SDS011;11630;42.660;23.292;2023-02-28T10:27:24;62.20;;;32.53;;
22929;SDS011;11630;42.660;23.292;2023-02-28T10:29:58;59.20;;;32.40;;
22929;SDS011;11630;42.660;23.292;2023-02-28T10:32:32;53.67;;;31.93;;
22929;SDS011;11630;42.660;23.292;2023-02-28T10:37:48;51.73;;;29.87;;
22929;SDS011;11630;42.660;23.292;2023-02-28T10:42:56;43.30;;;23.93;;
22929;SDS011;11630;42.660;23.292;2023-02-28T10:45:34;30.60;;;15.20;;
22929;SDS011;11630;42.660;23.292;2023-02-28T10:48:24;26.40;;;14.17;;
22929;SDS011;11630;42.660;23.292;2023-02-28T10:50:37;30.20;;;14.83;;
22929;SDS011;11630;42.660;23.292;2023-02-28T10:53:16;28.40;;;14.30;;
22929;SDS011;11630;42.660;23.292;2023-02-28T11:01:23;32.93;;;14.37;;
22929;SDS011;11630;42.660;23.292;2023-02-28T11:04:18;36.73;;;15.47;;
22929;SDS011;11630;42.660;23.292;2023-02-28T11:06:59;25.47;;;14.20;;
22929;SDS011;11630;42.660;23.292;2023-02-28T11:09:31;24.60;;;14.13;;
22929;SDS011;11630;42.660;23.292;2023-02-28T11:12:17;33.03;;;12.90;;
22929;SDS011;11630;42.660;23.292;2023-02-28T11:14:55;25.07;;;13.27;;
22929;SDS011;11630;42.660;23.292;2023-02-28T11:17:30;26.23;;;13.53;;
22929;SDS011;11630;42.660;23.292;2023-02-28T11:20:02;34.43;;;15.20;;
22929;SDS011;11630;42.660;23.292;2023-02-28T11:22:35;29.53;;;13.77;;
22929;SDS011;11630;42.660;23.292;2023-02-28T11:25:16;31.87;;;14.30;;
22929;SDS011;11630;42.660;23.292;2023-02-28T11:30:24;28.63;;;14.03;;
22929;SDS011;11630;42.660;23.292;2023-02-28T11:35:51;29.43;;;15.13;;
22929;SDS011;11630;42.660;23.292;2023-02-28T11:38:23;34.27;;;14.70;;
22929;SDS011;11630;42.660;23.292;2023-02-28T11:43:35;26.87;;;16.87;;
22929;SDS011;11630;42.660;23.292;2023-02-28T11:49:11;41.43;;;16.13;;
22929;SDS011;11630;42.660;23.292;2023-02-28T11:51:58;33.30;;;17.13;;
22929;SDS011;11630;42.660;23.292;2023-02-28T11:54:55;36.07;;;17.67;;
22929;SDS011;11630;42.660;23.292;2023-02-28T12:08:47;32.97;;;18.90;;
22929;SDS011;11630;42.660;23.292;2023-02-28T12:11:40;35.93;;;17.83;;
22929;SDS011;11630;42.660;23.292;2023-02-28T12:22:40;23.27;;;15.23;;
22929;SDS011;11630;42.660;23.292;2023-02-28T12:28:04;30.47;;;16.53;;
22929;SDS011;11630;42.660;23.292;2023-02-28T12:30:35;32.50;;;16.33;;
22929;SDS011;11630;42.660;23.292;2023-02-28T12:33:12;24.70;;;14.17;;
22929;SDS011;11630;42.660;23.292;2023-02-28T12:35:47;33.53;;;15.93;;
22929;SDS011;11630;42.660;23.292;2023-02-28T12:38:17;34.07;;;15.60;;
22929;SDS011;11630;42.660;23.292;2023-02-28T12:40:56;30.60;;;14.93;;
22929;SDS011;11630;42.660;23.292;2023-02-28T12:43:31;31.27;;;15.70;;
22929;SDS011;11630;42.660;23.292;2023-02-28T12:46:03;30.17;;;16.17;;
22929;SDS011;11630;42.660;23.292;2023-02-28T12:48:40;28.90;;;15.93;;
22929;SDS011;11630;42.660;23.292;2023-02-28T12:51:19;26.47;;;15.17;;
22929;SDS011;11630;42.660;23.292;2023-02-28T13:10:25;33.43;;;15.53;;
22929;SDS011;11630;42.660;23.292;2023-02-28T13:12:57;26.40;;;15.47;;
22929;SDS011;11630;42.660;23.292;2023-02-28T13:15:29;31.87;;;15.20;;
22929;SDS011;11630;42.660;23.292;2023-02-28T13:18:00;24.70;;;15.87;;
22929;SDS011;11630;42.660;23.292;2023-02-28T13:20:34;28.83;;;16.20;;
22929;SDS011;11630;42.660;23.292;2023-02-28T13:23:14;29.07;;;17.03;;
22929;SDS011;11630;42.660;23.292;2023-02-28T13:28:57;30.63;;;16.60;;
22929;SDS011;11630;42.660;23.292;2023-02-28T13:31:05;37.03;;;15.37;;
22929;SDS011;11630;42.660;23.292;2023-02-28T13:36:28;33.97;;;14.07;;
22929;SDS011;11630;42.660;23.292;2023-02-28T13:39:02;27.60;;;14.43;;
22929;SDS011;11630;42.660;23.292;2023-02-28T13:44:07;22.50;;;11.50;;
22929;SDS011;11630;42.660;23.292;2023-02-28T13:49:27;24.90;;;11.73;;
22929;SDS011;11630;42.660;23.292;2023-02-28T13:54:54;25.70;;;11.67;;
22929;SDS011;11630;42.660;23.292;2023-02-28T14:05:44;25.07;;;12.90;;
22929;SDS011;11630;42.660;23.292;2023-02-28T14:08:20;23.13;;;12.13;;
22929;SDS011;11630;42.660;23.292;2023-02-28T14:11:02;33.93;;;11.83;;
22929;SDS011;11630;42.660;23.292;2023-02-28T14:13:37;24.50;;;13.13;;
22929;SDS011;11630;42.660;23.292;2023-02-28T14:16:13;16.77;;;9.30;;
22929;SDS011;11630;42.660;23.292;2023-02-28T14:19:10;26.03;;;12.07;;
22929;SDS011;11630;42.660;23.292;2023-02-28T14:30:13;22.87;;;12.00;;
22929;SDS011;11630;42.660;23.292;2023-02-28T14:35:45;22.60;;;11.80;;
22929;SDS011;11630;42.660;23.292;2023-02-28T14:38:17;27.70;;;9.67;;
22929;SDS011;11630;42.660;23.292;2023-02-28T14:40:47;28.27;;;11.53;;
22929;SDS011;11630;42.660;23.292;2023-02-28T14:43:21;29.00;;;13.17;;
22929;SDS011;11630;42.660;23.292;2023-02-28T14:45:57;37.70;;;13.03;;
22929;SDS011;11630;42.660;23.292;2023-02-28T14:48:31;29.10;;;12.60;;
22929;SDS011;11630;42.660;23.292;2023-02-28T14:51:03;21.97;;;13.03;;
22929;SDS011;11630;42.660;23.292;2023-02-28T14:53:36;28.47;;;11.67;;
22929;SDS011;11630;42.660;23.292;2023-02-28T14:56:17;22.60;;;10.80;;
22929;SDS011;11630;42.660;23.292;2023-02-28T14:58:38;26.30;;;12.80;;
22929;SDS011;11630;42.660;23.292;2023-02-28T15:01:09;24.37;;;13.97;;
22929;SDS011;11630;42.660;23.292;2023-02-28T15:03:39;25.57;;;12.07;;
22929;SDS011;11630;42.660;23.292;2023-02-28T15:06:14;21.33;;;11.70;;
22929;SDS011;11630;42.660;23.292;2023-02-28T15:08:46;19.13;;;11.07;;
22929;SDS011;11630;42.660;23.292;2023-02-28T15:11:18;27.77;;;11.23;;
22929;SDS011;11630;42.660;23.292;2023-02-28T15:13:50;22.30;;;11.03;;
22929;SDS011;11630;42.660;23.292;2023-02-28T15:19:22;27.03;;;13.63;;
22929;SDS011;11630;42.660;23.292;2023-02-28T15:22:00;20.37;;;12.50;;
22929;SDS011;11630;42.660;23.292;2023-02-28T15:24:40;29.30;;;13.13;;
22929;SDS011;11630;42.660;23.292;2023-02-28T15:27:18;28.80;;;13.57;;
22929;SDS011;11630;42.660;23.292;2023-02-28T15:29:54;25.43;;;13.80;;
22929;SDS011;11630;42.660;23.292;2023-02-28T15:32:30;28.13;;;14.57;;
22929;SDS011;11630;42.660;23.292;2023-02-28T15:35:18;27.70;;;12.40;;
22929;SDS011;11630;42.660;23.292;2023-02-28T15:37:55;26.10;;;13.00;;
22929;SDS011;11630;42.660;23.292;2023-02-28T15:40:29;26.13;;;12.43;;
22929;SDS011;11630;42.660;23.292;2023-02-28T15:43:12;25.93;;;12.20;;
22929;SDS011;11630;42.660;23.292;2023-02-28T15:45:45;21.90;;;11.80;;
22929;SDS011;11630;42.660;23.292;2023-02-28T15:48:24;24.37;;;11.90;;
22929;SDS011;11630;42.660;23.292;2023-02-28T15:51:06;20.93;;;11.03;;
22929;SDS011;11630;42.660;23.292;2023-02-28T15:53:50;20.10;;;11.37;;
22929;SDS011;11630;42.660;23.292;2023-02-28T15:56:28;18.20;;;11.93;;
22929;SDS011;11630;42.660;23.292;2023-02-28T15:58:59;28.17;;;12.27;;
22929;SDS011;11630;42.660;23.292;2023-02-28T16:01:33;21.43;;;10.50;;
22929;SDS011;11630;42.660;23.292;2023-02-28T16:04:11;21.40;;;10.73;;
22929;SDS011;11630;42.660;23.292;2023-02-28T16:07:00;15.90;;;9.37;;
22929;SDS011;11630;42.660;23.292;2023-02-28T16:09:29;16.10;;;9.77;;
22929;SDS011;11630;42.660;23.292;2023-02-28T16:12:00;14.30;;;8.23;;
22929;SDS011;11630;42.660;23.292;2023-02-28T16:14:32;11.47;;;8.00;;
22929;SDS011;11630;42.660;23.292;2023-02-28T16:17:04;14.17;;;9.20;;
22929;SDS011;11630;42.660;23.292;2023-02-28T16:19:35;14.77;;;9.60;;
22929;SDS011;11630;42.660;23.292;2023-02-28T16:22:09;13.13;;;9.20;;
22929;SDS011;11630;42.660;23.292;2023-02-28T16:24:40;16.03;;;10.43;;
22929;SDS011;11630;42.660;23.292;2023-02-28T16:27:16;14.60;;;10.33;;
22929;SDS011;11630;42.660;23.292;2023-02-28T16:29:43;14.40;;;9.00;;
22929;SDS011;11630;42.660;23.292;2023-02-28T16:32:14;23.20;;;9.63;;
22929;SDS011;11630;42.660;23.292;2023-02-28T16:34:46;16.40;;;9.53;;
22929;SDS011;11630;42.660;23.292;2023-02-28T16:37:17;18.70;;;9.30;;
22929;SDS011;11630;42.660;23.292;2023-02-28T16:39:48;16.50;;;9.07;;
22929;SDS011;11630;42.660;23.292;2023-02-28T16:42:25;20.73;;;9.33;;
22929;SDS011;11630;42.660;23.292;2023-02-28T16:44:55;11.23;;;8.73;;
22929;SDS011;11630;42.660;23.292;2023-02-28T16:47:25;16.83;;;9.80;;
22929;SDS011;11630;42.660;23.292;2023-02-28T16:49:56;13.77;;;8.53;;
22929;SDS011;11630;42.660;23.292;2023-02-28T16:52:29;16.27;;;8.93;;